Beverly, New Jersey
Current Conditions -  °F | °C
As of 8:17 AM on Monday 22 Dec 2014 (Local Time) from KPNE Reporting Station
Scattered Clouds Scattered Clouds  
Wind Chill: 29°   Ceiling: Unl
Heat Index: 35°   Visibility: 9mi
Dew Point: 27°   Wind: 7mph
Humidity: 72%   Direction: 10°N
Pressure: 30.32"   Gusts: NA
Location:  40.07°N, 74.92°W
Report Text: KPNE 221317Z AUTO 01006KT 9SM SCT022 02/M03 A3032 RMK AO2 T00171028 TSNO
Loading
Personal Weather Stations






























Interactive Weather Map New forecast layout! Learn more

10-Day Weather Forecast

Advertisements
Track Severe Weather on mobile